Time;durP1;ratioP1;P1;durP2;ratioP2;P2;SDS_P1;SDS_P2;PMS_P1;PMS_P2;Temp;Humidity;BMP_temperature;BMP_pressure;BME280_temperature;BME280_humidity;BME280_pressure;Samples;Min_cycle;Max_cycle;Signal;HPM_P1;HPM_P2
2022/01/07 00:00:30;;;;;;;6.68;2.13;;;;;;;3.34;85.19;101298.59;5005373;28;21128;-71
2022/01/07 00:02:58;;;;;;;9.27;3.97;;;;;;;3.42;83.96;101301.75;5005216;28;20049;-71
2022/01/07 00:05:25;;;;;;;3.53;1.90;;;;;;;3.44;83.95;101292.13;5003396;28;20052;-73
2022/01/07 00:07:52;;;;;;;7.97;2.40;;;;;;;3.48;84.43;101291.13;5002871;28;20066;-71
2022/01/07 00:10:21;;;;;;;6.75;2.08;;;;;;;3.49;84.11;101279.78;5004544;28;20049;-71
2022/01/07 00:12:48;;;;;;;1.27;1.17;;;;;;;3.50;84.00;101284.09;5004841;28;20134;-74
2022/01/07 00:15:16;;;;;;;5.13;3.42;;;;;;;3.47;84.21;101284.22;5006452;28;20041;-71
2022/01/07 00:17:43;;;;;;;3.33;2.10;;;;;;;3.49;84.18;101279.78;4983766;28;20049;-72
2022/01/07 00:20:12;;;;;;;5.82;2.95;;;;;;;3.50;84.07;101276.28;5007733;28;20376;-71
2022/01/07 00:22:40;;;;;;;3.28;1.75;;;;;;;3.56;83.13;101272.59;5001621;28;20052;-72
2022/01/07 00:25:08;;;;;;;2.70;1.85;;;;;;;3.59;83.25;101265.53;5006154;28;20131;-71
2022/01/07 00:27:36;;;;;;;9.43;2.97;;;;;;;3.58;83.41;101269.03;5001715;28;20056;-71
2022/01/07 00:30:05;;;;;;;3.72;2.28;;;;;;;3.58;83.36;101261.22;5004157;28;20045;-72
2022/01/07 00:32:31;;;;;;;6.90;3.08;;;;;;;3.60;82.71;101259.41;5003336;28;20057;-72
2022/01/07 00:34:58;;;;;;;4.32;2.38;;;;;;;3.61;82.62;101260.28;5004011;28;20053;-70
2022/01/07 00:37:24;;;;;;;6.35;3.00;;;;;;;3.62;83.11;101251.56;5002820;28;20949;-71
2022/01/07 00:39:52;;;;;;;4.20;1.80;;;;;;;3.62;83.28;101247.22;5000872;28;20088;-72
2022/01/07 00:42:19;;;;;;;2.28;1.92;;;;;;;3.63;82.92;101240.25;5000877;28;20049;-72
2022/01/07 00:44:47;;;;;;;2.92;1.67;;;;;;;3.68;81.67;101235.72;5003705;28;20080;-72
2022/01/07 00:47:15;;;;;;;5.43;2.45;;;;;;;3.67;82.56;101242.66;5002695;28;20049;-71
2022/01/07 00:49:43;;;;;;;2.05;1.75;;;;;;;3.67;82.38;101236.63;5002861;28;20050;-70
2022/01/07 00:52:10;;;;;;;2.08;1.85;;;;;;;3.67;82.48;101234.03;5003681;28;20540;-72
2022/01/07 00:54:37;;;;;;;5.10;2.40;;;;;;;3.68;81.96;101220.97;5004399;28;20508;-73
2022/01/07 00:57:04;;;;;;;13.45;3.17;;;;;;;3.71;81.62;101226.03;4984533;28;20061;-71
2022/01/07 00:59:33;;;;;;;3.03;2.00;;;;;;;3.75;80.74;101216.34;5004173;28;20045;-71
2022/01/07 01:02:01;;;;;;;5.13;2.38;;;;;;;3.76;80.87;101218.06;5006684;28;20591;-72
2022/01/07 01:04:28;;;;;;;1.40;1.23;;;;;;;3.82;80.59;101222.97;5006320;28;20052;-72
2022/01/07 01:06:55;;;;;;;4.30;2.33;;;;;;;3.84;80.39;101224.59;5002903;28;20054;-71
2022/01/07 01:09:21;;;;;;;3.47;1.48;;;;;;;3.84;80.67;101221.97;4993108;28;20137;-70
2022/01/07 01:11:48;;;;;;;1.95;1.33;;;;;;;3.81;81.00;101222.13;5004387;28;20095;-72
2022/01/07 01:14:15;;;;;;;2.58;1.65;;;;;;;3.77;82.21;101217.16;5003782;28;20048;-71
2022/01/07 01:16:41;;;;;;;3.42;2.13;;;;;;;3.67;83.49;101214.09;5003922;28;20129;-72
2022/01/07 01:19:09;;;;;;;2.70;1.65;;;;;;;3.59;84.26;101207.53;4989966;28;20049;-72
2022/01/07 01:21:36;;;;;;;2.15;1.77;;;;;;;3.53;84.63;101205.22;5002176;28;20051;-72
2022/01/07 01:24:03;;;;;;;5.63;1.63;;;;;;;3.48;84.71;101187.25;5006201;28;20130;-71
2022/01/07 01:26:30;;;;;;;2.75;1.80;;;;;;;3.46;86.40;101188.19;5004062;28;20050;-72
2022/01/07 01:28:56;;;;;;;2.83;1.75;;;;;;;3.49;85.70;101191.50;5004546;28;20060;-72
2022/01/07 01:31:23;;;;;;;6.10;2.08;;;;;;;3.42;85.92;101190.06;5006383;28;20063;-74
2022/01/07 01:33:49;;;;;;;1.90;1.65;;;;;;;3.51;85.86;101200.06;5004356;28;20120;-71
2022/01/07 01:36:17;;;;;;;5.25;1.40;;;;;;;3.48;87.10;101188.97;5001873;28;20124;-72
2022/01/07 01:38:44;;;;;;;1.80;1.52;;;;;;;3.49;86.71;101194.09;5003929;28;20037;-73
2022/01/07 01:41:11;;;;;;;2.50;1.35;;;;;;;3.39;88.08;101187.63;5009479;28;20053;-72
2022/01/07 01:43:37;;;;;;;5.70;1.60;;;;;;;3.32;88.97;101188.78;5010029;28;20125;-72
2022/01/07 01:46:04;;;;;;;1.45;0.98;;;;;;;3.27;88.79;101185.53;5012615;28;20034;-71
2022/01/07 01:48:31;;;;;;;2.15;1.55;;;;;;;3.20;89.38;101180.69;5009819;28;20156;-71
2022/01/07 01:50:59;;;;;;;3.40;1.45;;;;;;;3.12;91.34;101174.13;5014796;28;20073;-71
2022/01/07 01:53:30;;;;;;;0.95;0.75;;;;;;;3.09;90.42;101171.66;5012645;28;20069;-71
2022/01/07 01:55:56;;;;;;;2.05;1.30;;;;;;;3.06;91.20;101164.84;4994794;28;20065;-71
2022/01/07 01:58:23;;;;;;;6.70;2.97;;;;;;;3.02;92.19;101159.84;4994911;28;20122;-71
2022/01/07 02:00:49;;;;;;;1.25;0.95;;;;;;;3.00;92.18;101151.25;5010906;28;20046;-73
2022/01/07 02:03:16;;;;;;;3.15;1.90;;;;;;;3.03;91.48;101135.59;5010654;28;20042;-74
2022/01/07 02:05:45;;;;;;;1.42;0.77;;;;;;;3.03;92.17;101136.44;5010118;28;21934;-71
2022/01/07 02:08:11;;;;;;;1.80;1.30;;;;;;;3.04;91.33;101137.28;5011304;28;20076;-73
2022/01/07 02:10:39;;;;;;;7.63;3.88;;;;;;;3.08;91.27;101128.47;5010392;28;20057;-73
2022/01/07 02:13:06;;;;;;;2.90;1.63;;;;;;;3.15;90.86;101124.69;5011245;28;20073;-72
2022/01/07 02:15:33;;;;;;;0.55;0.50;;;;;;;3.11;91.43;101110.16;5009537;28;20124;-71
2022/01/07 02:18:00;;;;;;;1.85;1.40;;;;;;;3.10;90.95;101108.44;4995566;28;20455;-72
2022/01/07 02:20:29;;;;;;;5.22;1.90;;;;;;;3.13;91.00;101100.53;5008939;28;20041;-74
2022/01/07 02:22:56;;;;;;;2.58;1.77;;;;;;;3.18;89.85;101096.84;5011910;28;20072;-72
2022/01/07 02:25:24;;;;;;;2.00;1.13;;;;;;;3.19;89.53;101088.16;5020711;28;20041;-72
2022/01/07 02:27:52;;;;;;;3.50;1.27;;;;;;;3.23;89.55;101092.28;5025298;28;20051;-72
2022/01/07 02:30:20;;;;;;;1.65;1.17;;;;;;;3.26;88.65;101082.63;5015608;28;20105;-71
2022/01/07 02:32:48;;;;;;;1.95;1.30;;;;;;;3.27;88.81;101073.91;5019966;28;20128;-71
2022/01/07 02:35:15;;;;;;;1.50;0.82;;;;;;;3.29;88.25;101066.91;5007498;28;20042;-72
2022/01/07 02:37:43;;;;;;;4.78;1.40;;;;;;;3.31;88.86;101061.66;5004737;28;20146;-72
2022/01/07 02:40:11;;;;;;;1.05;0.77;;;;;;;3.33;88.77;101039.88;5006192;28;20052;-72
2022/01/07 02:42:38;;;;;;;7.90;2.38;;;;;;;3.33;87.94;101055.47;4994666;28;20088;-71
2022/01/07 02:45:08;;;;;;;2.90;1.90;;;;;;;3.37;88.18;101057.03;5013520;28;20042;-71
2022/01/07 02:47:46;;;;;;;2.90;1.85;;;;;;;3.40;87.24;101038.72;5012464;28;20496;-72
2022/01/07 02:50:12;;;;;;;1.77;1.20;;;;;;;3.37;88.47;101049.25;5005156;28;20053;-73
2022/01/07 02:52:39;;;;;;;2.67;1.23;;;;;;;3.36;87.63;101037.16;5005477;28;20064;-72
2022/01/07 02:55:08;;;;;;;1.73;1.10;;;;;;;3.38;87.57;101040.53;5003478;28;20042;-71
2022/01/07 02:57:35;;;;;;;1.60;1.05;;;;;;;3.47;86.64;101047.91;5003267;28;20049;-73
2022/01/07 03:00:02;;;;;;;2.22;1.30;;;;;;;3.45;86.52;101049.72;5004450;28;20041;-73
2022/01/07 03:02:29;;;;;;;3.90;1.40;;;;;;;3.48;86.40;101046.16;5004776;28;20045;-73
2022/01/07 03:04:55;;;;;;;5.15;1.05;;;;;;;3.48;86.64;101041.81;4997887;28;20148;-73
2022/01/07 03:07:22;;;;;;;2.75;1.50;;;;;;;3.49;85.93;101033.09;5007651;28;20053;-71
2022/01/07 03:09:48;;;;;;;1.20;1.00;;;;;;;3.51;85.27;101033.03;5008001;28;20049;-72
2022/01/07 03:12:16;;;;;;;2.85;1.80;;;;;;;3.47;85.87;101032.34;5008958;28;20328;-73
2022/01/07 03:14:43;;;;;;;2.17;1.38;;;;;;;3.49;86.03;101027.88;5010027;28;20037;-73
2022/01/07 03:17:09;;;;;;;1.58;1.08;;;;;;;3.51;85.21;101020.06;5006954;28;20116;-71
2022/01/07 03:19:35;;;;;;;3.00;1.77;;;;;;;3.55;85.51;101014.66;5013577;28;20053;-72
2022/01/07 03:22:02;;;;;;;4.60;2.17;;;;;;;3.58;85.17;101018.84;5011647;28;20053;-70
2022/01/07 03:24:29;;;;;;;8.30;1.60;;;;;;;3.58;85.86;101006.69;5003295;28;20139;-71
2022/01/07 03:26:55;;;;;;;4.25;0.80;;;;;;;3.59;84.03;101013.56;5007136;28;20124;-72
2022/01/07 03:29:23;;;;;;;6.07;1.88;;;;;;;3.63;84.24;101009.94;5012652;28;20527;-72
2022/01/07 03:31:50;;;;;;;4.47;1.15;;;;;;;3.73;82.66;100999.94;4996795;28;20342;-71
2022/01/07 03:34:16;;;;;;;8.30;0.98;;;;;;;3.72;83.67;101004.31;5013132;28;20046;-72
2022/01/07 03:36:43;;;;;;;11.75;1.15;;;;;;;3.72;82.12;100988.72;5012519;28;20053;-74
2022/01/07 03:39:10;;;;;;;4.38;1.33;;;;;;;3.79;82.21;101000.50;5012439;28;20572;-71
2022/01/07 03:41:36;;;;;;;3.75;0.70;;;;;;;3.85;82.08;100995.00;5011180;28;20129;-73
2022/01/07 03:44:03;;;;;;;3.28;1.02;;;;;;;3.83;83.26;100998.59;5010525;28;20054;-73
2022/01/07 03:46:31;;;;;;;0.65;0.60;;;;;;;3.85;83.03;100989.00;5013971;28;20052;-72
2022/01/07 03:48:58;;;;;;;1.33;0.90;;;;;;;3.81;83.93;100998.69;5008515;28;20049;-72
2022/01/07 03:51:24;;;;;;;1.92;0.80;;;;;;;3.82;84.13;100989.13;5012309;28;20042;-72
2022/01/07 03:53:51;;;;;;;5.50;1.13;;;;;;;3.72;84.71;100978.34;5007763;28;20086;-71
2022/01/07 03:56:20;;;;;;;4.68;1.55;;;;;;;3.68;86.16;100988.94;5011691;28;20122;-72
2022/01/07 03:58:47;;;;;;;7.20;1.90;;;;;;;3.63;85.79;100975.31;5010774;28;20038;-72
2022/01/07 04:01:14;;;;;;;4.18;1.48;;;;;;;3.60;86.69;100980.69;5000607;28;20424;-72
2022/01/07 04:03:42;;;;;;;2.45;0.70;;;;;;;3.58;87.50;100969.50;4990946;28;20383;-72
2022/01/07 04:06:08;;;;;;;3.55;2.03;;;;;;;3.57;87.34;100973.84;5012450;28;20129;-70
2022/01/07 04:08:35;;;;;;;12.38;1.40;;;;;;;3.55;87.85;100962.72;5010020;28;20100;-72
2022/01/07 04:11:01;;;;;;;0.90;0.65;;;;;;;3.56;87.39;100955.75;5009140;28;20049;-71
2022/01/07 04:13:28;;;;;;;1.10;0.80;;;;;;;3.55;87.14;100947.13;5008195;28;20053;-72
2022/01/07 04:15:55;;;;;;;4.88;0.82;;;;;;;3.58;87.07;100946.97;5010647;28;20138;-72
2022/01/07 04:18:21;;;;;;;1.17;0.88;;;;;;;3.63;86.74;100942.41;5009749;28;20411;-72
2022/01/07 04:20:49;;;;;;;1.20;0.85;;;;;;;3.61;87.99;100954.63;5008738;28;20120;-73
2022/01/07 04:23:15;;;;;;;6.45;1.85;;;;;;;3.58;88.13;100944.38;5007804;28;20071;-72
2022/01/07 04:25:42;;;;;;;1.42;0.75;;;;;;;3.52;88.45;100949.84;5010989;28;20045;-72
2022/01/07 04:28:09;;;;;;;0.88;0.57;;;;;;;3.50;88.89;100945.66;5010944;28;20046;-72
2022/01/07 04:30:39;;;;;;;1.15;0.77;;;;;;;3.45;89.67;100953.66;5007660;28;20244;-71
2022/01/07 04:33:06;;;;;;;2.35;0.88;;;;;;;3.43;90.28;100944.25;5012182;28;20041;-72
2022/01/07 04:35:35;;;;;;;1.10;0.80;;;;;;;3.41;90.61;100946.91;5010343;28;20129;-73
2022/01/07 04:38:03;;;;;;;0.47;0.43;;;;;;;3.34;91.63;100940.31;5008434;28;20072;-74
2022/01/07 04:40:30;;;;;;;2.67;0.70;;;;;;;3.27;92.27;100949.31;5009697;28;20042;-71
2022/01/07 04:42:58;;;;;;;3.10;0.88;;;;;;;3.21;92.88;100949.59;5011846;28;20041;-72
2022/01/07 04:45:24;;;;;;;1.48;1.23;;;;;;;3.14;93.60;100956.91;5011426;28;20061;-72
2022/01/07 04:47:51;;;;;;;1.73;0.73;;;;;;;3.08;94.22;100946.81;5008571;28;20041;-73
2022/01/07 04:50:19;;;;;;;1.00;0.57;;;;;;;3.04;94.48;100942.66;5002751;28;20052;-72
2022/01/07 04:52:46;;;;;;;1.33;0.73;;;;;;;3.00;94.75;100941.09;5009775;28;20113;-73
2022/01/07 04:55:16;;;;;;;0.40;0.32;;;;;;;2.97;95.00;100941.25;5010726;28;20046;-72
2022/01/07 04:57:43;;;;;;;1.02;0.77;;;;;;;2.99;95.27;100942.03;5010597;28;20116;-71
2022/01/07 05:00:11;;;;;;;1.98;0.90;;;;;;;2.97;95.99;100933.47;5015409;28;20075;-72
2022/01/07 05:02:39;;;;;;;6.85;1.13;;;;;;;2.99;95.48;100931.66;5017710;28;20050;-72
2022/01/07 05:05:06;;;;;;;6.90;1.55;;;;;;;2.98;95.85;100933.38;5028439;28;20038;-71
2022/01/07 05:07:36;;;;;;;0.70;0.57;;;;;;;3.00;96.14;100930.72;5028653;28;20041;-72
2022/01/07 05:10:03;;;;;;;8.98;1.52;;;;;;;3.02;95.95;100934.09;5025272;28;20123;-72
2022/01/07 05:12:31;;;;;;;1.52;0.95;;;;;;;2.99;96.20;100926.47;5010124;28;20115;-73
2022/01/07 05:14:58;;;;;;;0.50;0.40;;;;;;;3.00;96.37;100922.94;5008322;28;20037;-72
2022/01/07 05:17:25;;;;;;;1.60;1.13;;;;;;;3.00;96.44;100933.31;5011465;28;20548;-72
2022/01/07 05:19:51;;;;;;;1.65;1.48;;;;;;;3.02;96.99;100932.34;5009575;28;20052;-71
2022/01/07 05:22:18;;;;;;;3.03;1.35;;;;;;;3.05;96.80;100934.78;5013680;28;20053;-71
2022/01/07 05:24:44;;;;;;;7.30;1.13;;;;;;;3.10;96.44;100926.78;5013053;28;20045;-73
2022/01/07 05:27:11;;;;;;;1.67;1.05;;;;;;;3.11;96.00;100936.28;5014825;28;20041;-73
2022/01/07 05:29:39;;;;;;;1.95;1.08;;;;;;;3.13;96.45;100921.47;5010048;28;20120;-72
2022/01/07 05:32:06;;;;;;;2.00;0.95;;;;;;;3.15;96.45;100927.44;5024606;28;20038;-73
2022/01/07 05:34:33;;;;;;;3.25;0.63;;;;;;;3.16;96.21;100920.41;5024288;28;20120;-72
2022/01/07 05:37:00;;;;;;;1.02;0.90;;;;;;;3.17;96.40;100914.31;5021392;28;20056;-72
2022/01/07 05:39:27;;;;;;;1.10;0.82;;;;;;;3.19;96.67;100917.69;5023756;28;20129;-72
2022/01/07 05:41:54;;;;;;;3.17;0.93;;;;;;;3.21;96.16;100920.19;5019182;28;20133;-73
2022/01/07 05:44:21;;;;;;;1.00;0.70;;;;;;;3.22;96.28;100924.47;5024335;28;20408;-72
2022/01/07 05:46:49;;;;;;;0.90;0.63;;;;;;;3.25;96.46;100924.34;5000996;28;20060;-71
2022/01/07 05:49:15;;;;;;;0.98;0.75;;;;;;;3.25;96.09;100925.16;5025124;28;20129;-72
2022/01/07 05:51:42;;;;;;;2.10;1.55;;;;;;;3.25;96.60;100929.53;5016239;28;20121;-70
2022/01/07 05:54:09;;;;;;;1.15;1.02;;;;;;;3.31;95.80;100930.09;5022380;28;20041;-72
2022/01/07 05:56:36;;;;;;;1.00;0.82;;;;;;;3.33;95.66;100927.44;5016840;28;20052;-71
2022/01/07 05:59:03;;;;;;;1.15;0.90;;;;;;;3.35;95.58;100916.06;5006134;28;20042;-72
2022/01/07 06:01:29;;;;;;;0.95;0.85;;;;;;;3.35;96.04;100905.66;5019111;28;20049;-72
2022/01/07 06:03:57;;;;;;;5.65;1.25;;;;;;;3.37;95.81;100909.03;5017046;28;20038;-73
2022/01/07 06:06:24;;;;;;;1.38;0.73;;;;;;;3.40;96.00;100916.69;5012941;28;20523;-70
2022/01/07 06:08:50;;;;;;;0.32;0.30;;;;;;;3.43;95.72;100898.34;5017565;28;20064;-71
2022/01/07 06:11:17;;;;;;;1.25;0.85;;;;;;;3.44;95.61;100889.66;5021902;28;20052;-71
2022/01/07 06:13:44;;;;;;;7.43;1.85;;;;;;;3.50;95.67;100878.97;5016794;28;20064;-71
2022/01/07 06:16:11;;;;;;;1.58;1.00;;;;;;;3.49;95.03;100892.84;5026800;28;20044;-72
2022/01/07 06:18:39;;;;;;;2.05;1.20;;;;;;;3.56;94.58;100898.59;5016197;28;20163;-71
2022/01/07 06:21:07;;;;;;;0.82;0.52;;;;;;;3.57;95.60;100890.72;5022337;28;20112;-71
2022/01/07 06:23:35;;;;;;;1.67;1.17;;;;;;;3.57;95.32;100885.53;5015351;28;20570;-71
2022/01/07 06:26:01;;;;;;;1.63;1.42;;;;;;;3.60;95.33;100884.56;5019127;28;20049;-72
2022/01/07 06:28:28;;;;;;;1.52;0.77;;;;;;;3.62;94.98;100883.56;5019135;28;20037;-71
2022/01/07 06:30:55;;;;;;;4.90;1.58;;;;;;;3.65;95.09;100891.19;5017895;28;20038;-72
2022/01/07 06:33:21;;;;;;;1.65;0.90;;;;;;;3.65;94.87;100882.59;5019727;28;20075;-72
2022/01/07 06:35:48;;;;;;;0.73;0.73;;;;;;;3.69;94.68;100895.34;5018477;28;20060;-72
2022/01/07 06:38:16;;;;;;;2.17;1.00;;;;;;;3.69;94.76;100899.72;5022623;28;20083;-72
2022/01/07 06:40:42;;;;;;;0.55;0.55;;;;;;;3.71;95.43;100897.88;5015509;28;20057;-72
2022/01/07 06:43:09;;;;;;;1.42;1.15;;;;;;;3.69;95.38;100894.53;5019894;28;20081;-72
2022/01/07 06:45:35;;;;;;;1.38;0.88;;;;;;;3.75;94.53;100889.84;5016529;28;20050;-71
2022/01/07 06:48:02;;;;;;;1.00;0.80;;;;;;;3.79;94.59;100906.97;5013434;28;20230;-72
2022/01/07 06:50:28;;;;;;;0.88;0.80;;;;;;;3.80;94.84;100903.47;5010904;28;20042;-73
2022/01/07 06:52:55;;;;;;;1.05;0.88;;;;;;;3.80;94.63;100898.28;5018052;28;20043;-73
2022/01/07 06:55:23;;;;;;;1.55;1.10;;;;;;;3.80;94.49;100893.06;5015744;28;20052;-72
2022/01/07 06:57:51;;;;;;;1.35;1.00;;;;;;;3.83;94.37;100902.47;5010381;28;20048;-73
2022/01/07 07:00:18;;;;;;;1.35;0.95;;;;;;;3.85;94.51;100904.06;5001893;28;20065;-71
2022/01/07 07:02:47;;;;;;;2.95;1.17;;;;;;;3.87;93.79;100899.66;5012986;28;20052;-71
2022/01/07 07:05:24;;;;;;;5.18;2.10;;;;;;;3.89;93.85;100897.81;5014718;28;20045;-71
2022/01/07 07:08:11;;;;;;;6.18;1.98;;;;;;;3.89;94.27;100897.81;5015301;28;20048;-72
2022/01/07 07:10:39;;;;;;;5.75;2.00;;;;;;;3.91;94.13;100898.56;5018097;28;20045;-72
2022/01/07 07:13:05;;;;;;;2.67;1.35;;;;;;;3.93;93.68;100894.13;5019557;28;20050;-72
2022/01/07 07:15:32;;;;;;;1.30;1.20;;;;;;;3.92;94.02;100895.06;5020112;28;20104;-71
2022/01/07 07:17:59;;;;;;;0.75;0.63;;;;;;;3.94;94.44;100893.22;5018510;28;20061;-72
2022/01/07 07:20:25;;;;;;;11.38;2.65;;;;;;;3.96;94.04;100896.59;5018554;28;20518;-71
2022/01/07 07:22:52;;;;;;;1.67;0.90;;;;;;;3.96;94.08;100899.19;5014967;28;20068;-72
2022/01/07 07:25:22;;;;;;;1.88;1.17;;;;;;;3.98;93.68;100902.56;5005919;28;20044;-70
2022/01/07 07:27:50;;;;;;;3.13;1.88;;;;;;;3.99;93.96;100904.22;5016109;28;20563;-72
2022/01/07 07:30:17;;;;;;;1.77;1.27;;;;;;;3.98;94.13;100907.78;5020257;28;20063;-71
2022/01/07 07:32:43;;;;;;;2.15;1.27;;;;;;;4.00;93.82;100905.91;4994728;28;20046;-72
2022/01/07 07:37:54;;;;;;;2.00;1.58;;;;;;;4.03;94.00;100918.75;5023093;28;20171;-72
2022/01/07 07:40:20;;;;;;;4.63;2.38;;;;;;;4.06;93.81;100916.84;5031540;28;20403;-72
2022/01/07 07:42:47;;;;;;;1.52;0.95;;;;;;;4.08;93.70;100924.56;5036727;28;20029;-70
2022/01/07 07:45:15;;;;;;;2.33;1.40;;;;;;;4.10;93.49;100918.38;5041758;28;20052;-71
2022/01/07 07:47:43;;;;;;;0.85;0.55;;;;;;;4.13;93.38;100922.59;5028444;28;20048;-72
2022/01/07 07:50:10;;;;;;;1.95;1.27;;;;;;;4.17;93.18;100935.34;5017184;28;20048;-74
2022/01/07 07:52:37;;;;;;;1.33;1.15;;;;;;;4.16;93.34;100930.22;5016124;28;20111;-72
2022/01/07 07:55:04;;;;;;;2.58;1.48;;;;;;;4.20;93.74;100921.38;5018010;28;20069;-71
2022/01/07 07:57:30;;;;;;;12.20;1.67;;;;;;;4.21;93.67;100928.25;5016684;28;20045;-71
2022/01/07 07:59:57;;;;;;;1.63;1.30;;;;;;;4.28;92.72;100929.63;4996089;28;20046;-70
2022/01/07 08:02:25;;;;;;;3.53;1.27;;;;;;;4.28;93.43;100927.00;5017222;28;20381;-71
2022/01/07 08:04:51;;;;;;;6.28;0.98;;;;;;;4.35;92.97;100923.19;5013124;28;20095;-69
2022/01/07 08:07:18;;;;;;;2.47;1.60;;;;;;;4.31;93.07;100922.50;5003419;28;20056;-71
2022/01/07 08:09:45;;;;;;;6.30;1.23;;;;;;;4.30;93.05;100909.59;4995657;28;20057;-72
2022/01/07 08:12:26;;;;;;;2.10;1.25;;;;;;;4.36;92.41;100909.25;5016203;28;20811;-72
2022/01/07 08:17:39;;;;;;;1.00;0.82;;;;;;;4.42;93.02;100898.53;5016687;28;20167;-71
2022/01/07 08:20:08;;;;;;;2.92;1.85;;;;;;;4.42;92.61;100894.19;5015621;28;20073;-71
2022/01/07 08:22:36;;;;;;;2.00;1.40;;;;;;;4.46;92.81;100895.69;5015947;28;20133;-71
2022/01/07 08:25:04;;;;;;;3.35;1.85;;;;;;;4.49;91.79;100879.94;5018065;28;20056;-74
2022/01/07 08:27:30;;;;;;;4.60;1.45;;;;;;;4.48;92.33;100878.25;5014471;28;20091;-74
2022/01/07 08:29:57;;;;;;;2.38;1.38;;;;;;;4.52;91.99;100887.56;5018666;28;20029;-72
2022/01/07 08:35:09;;;;;;;8.45;1.77;;;;;;;4.55;92.40;100884.00;5019317;28;20049;-71
2022/01/07 08:37:36;;;;;;;3.15;2.13;;;;;;;4.56;92.59;100885.66;5012248;28;20152;-74
2022/01/07 08:40:03;;;;;;;1.95;1.48;;;;;;;4.55;92.25;100886.59;5017361;28;20050;-72
2022/01/07 08:42:29;;;;;;;0.90;0.65;;;;;;;4.62;92.13;100880.97;5010341;28;20126;-70
2022/01/07 08:44:56;;;;;;;1.30;1.13;;;;;;;4.65;92.16;100890.38;5019879;28;20124;-71
2022/01/07 08:47:24;;;;;;;1.63;1.27;;;;;;;4.70;91.55;100889.22;5014194;28;20044;-72
2022/01/07 08:49:51;;;;;;;2.17;1.27;;;;;;;4.72;91.34;100883.00;5015546;28;20124;-73
2022/01/07 08:52:20;;;;;;;3.47;1.02;;;;;;;4.73;91.63;100887.28;5015325;28;20052;-73
2022/01/07 08:54:50;;;;;;;2.42;1.50;;;;;;;4.75;91.71;100892.44;5016784;28;20037;-72
2022/01/07 08:57:17;;;;;;;1.85;1.13;;;;;;;4.82;91.05;100889.41;5015465;28;20050;-75
2022/01/07 08:59:44;;;;;;;1.15;0.95;;;;;;;4.80;90.77;100891.25;5013819;28;20045;-72
2022/01/07 09:02:11;;;;;;;1.80;0.95;;;;;;;4.83;90.92;100880.69;5014135;28;20107;-71
2022/01/07 09:04:37;;;;;;;1.48;1.33;;;;;;;4.87;90.56;100874.41;5011874;28;20045;-72
2022/01/07 09:07:04;;;;;;;1.08;0.93;;;;;;;4.94;90.53;100883.56;5019875;28;20083;-71
2022/01/07 09:09:32;;;;;;;2.40;1.08;;;;;;;4.96;90.69;100875.66;5011086;28;20037;-72
2022/01/07 09:11:58;;;;;;;1.50;1.15;;;;;;;4.96;90.14;100878.25;5019729;28;20048;-73
2022/01/07 09:14:25;;;;;;;1.92;1.00;;;;;;;4.98;89.79;100864.22;5016048;28;20125;-71
2022/01/07 09:16:52;;;;;;;0.82;0.60;;;;;;;5.02;89.58;100860.56;5011800;28;20053;-72
2022/01/07 09:19:19;;;;;;;0.68;0.63;;;;;;;5.01;89.28;100858.88;5010237;28;20065;-72
2022/01/07 09:21:46;;;;;;;3.80;1.27;;;;;;;5.03;90.05;100863.97;5018539;28;20041;-71
2022/01/07 09:24:12;;;;;;;2.35;1.08;;;;;;;5.02;89.77;100868.38;4997311;28;20050;-72
2022/01/07 09:26:40;;;;;;;1.85;1.35;;;;;;;5.09;89.48;100877.50;5000167;28;20041;-72
2022/01/07 09:29:07;;;;;;;1.00;0.63;;;;;;;5.13;88.96;100881.63;5011165;28;20057;-70
2022/01/07 09:31:35;;;;;;;2.28;1.02;;;;;;;5.14;89.50;100883.28;4997151;28;20080;-71
2022/01/07 09:34:02;;;;;;;2.63;1.42;;;;;;;5.12;89.35;100887.78;5013260;28;20408;-70
2022/01/07 09:36:28;;;;;;;1.58;0.90;;;;;;;5.10;89.00;100889.59;5015982;28;20045;-69
2022/01/07 09:38:55;;;;;;;3.80;1.08;;;;;;;5.07;89.42;100889.78;5019687;28;20034;-71
2022/01/07 09:41:22;;;;;;;1.55;0.95;;;;;;;5.08;89.30;100881.03;5011780;28;20041;-70
2022/01/07 09:43:50;;;;;;;5.75;0.93;;;;;;;5.12;88.96;100886.91;5016076;28;20104;-71
2022/01/07 09:46:18;;;;;;;0.38;0.30;;;;;;;5.10;89.09;100889.59;5011854;28;20052;-71
2022/01/07 09:48:45;;;;;;;3.58;1.85;;;;;;;5.10;88.86;100888.75;5015353;28;20073;-70
2022/01/07 09:51:14;;;;;;;1.85;1.02;;;;;;;5.14;89.17;100895.50;5003012;28;20050;-72
2022/01/07 09:53:40;;;;;;;1.48;1.08;;;;;;;5.20;88.68;100901.22;5018004;28;20168;-71
2022/01/07 09:56:07;;;;;;;0.68;0.60;;;;;;;5.26;88.56;100895.66;5001084;28;20038;-73
2022/01/07 09:58:34;;;;;;;2.10;1.10;;;;;;;5.38;88.70;100909.78;4998228;28;20050;-71
2022/01/07 10:01:03;;;;;;;1.42;0.88;;;;;;;5.40;88.31;100897.50;5016110;28;20081;-72
2022/01/07 10:03:37;;;;;;;6.03;1.10;;;;;;;5.42;88.60;100896.50;5017076;28;20122;-72
2022/01/07 10:06:03;;;;;;;8.43;0.98;;;;;;;5.35;88.56;100900.38;5017800;28;20060;-71
2022/01/07 10:08:30;;;;;;;0.82;0.77;;;;;;;5.30;88.16;100898.94;5019093;28;20040;-72
2022/01/07 10:11:11;;;;;;;0.93;0.73;;;;;;;5.27;88.45;100894.75;5019798;28;20160;-73
2022/01/07 10:13:50;;;;;;;2.47;1.83;;;;;;;5.24;88.43;100894.91;5018962;28;20125;-67
2022/01/07 10:16:21;;;;;;;2.63;1.10;;;;;;;5.22;88.26;100883.72;5021483;28;20223;-71
2022/01/07 10:18:48;;;;;;;1.90;0.77;;;;;;;5.28;88.27;100885.16;5034646;28;20105;-72
2022/01/07 10:21:16;;;;;;;1.23;1.00;;;;;;;5.34;88.40;100877.84;5035568;28;20052;-69
2022/01/07 10:23:43;;;;;;;2.05;1.17;;;;;;;5.53;88.62;100867.22;5035389;28;20198;-70
2022/01/07 10:26:16;;;;;;;2.50;1.70;;;;;;;5.62;87.75;100859.75;5015811;28;20042;-70
2022/01/07 10:28:43;;;;;;;0.82;0.70;;;;;;;5.53;87.40;100866.31;5012356;28;20037;-70
2022/01/07 10:31:10;;;;;;;3.85;1.23;;;;;;;5.74;87.21;100861.63;5003816;28;20045;-71
2022/01/07 10:33:40;;;;;;;7.57;0.98;;;;;;;6.09;85.62;100855.25;5001505;28;20053;-69
2022/01/07 10:36:18;;;;;;;2.05;1.35;;;;;;;6.23;85.01;100855.25;5020698;28;20056;-70
2022/01/07 10:38:49;;;;;;;2.33;1.52;;;;;;;6.16;85.44;100848.72;5019801;28;20057;-71
2022/01/07 10:41:16;;;;;;;1.45;0.68;;;;;;;6.14;85.63;100850.59;5017032;28;20041;-72
2022/01/07 10:43:43;;;;;;;0.77;0.68;;;;;;;6.01;84.94;100860.06;5002118;28;20045;-69
2022/01/07 10:46:14;;;;;;;5.05;1.15;;;;;;;6.03;84.96;100851.22;5014595;28;20041;-71
2022/01/07 10:48:43;;;;;;;4.93;0.93;;;;;;;6.02;84.31;100833.91;5021949;28;20033;-70
2022/01/07 10:51:12;;;;;;;3.85;1.73;;;;;;;6.00;85.47;100861.81;4999380;28;20045;-70
2022/01/07 10:53:39;;;;;;;3.72;1.42;;;;;;;6.04;85.38;100844.22;5024089;28;20095;-69
2022/01/07 10:56:11;;;;;;;0.80;0.52;;;;;;;6.13;84.85;100841.09;5015561;28;20138;-69
2022/01/07 10:59:04;;;;;;;0.95;0.77;;;;;;;6.08;85.37;100840.53;5019790;28;20037;-71
2022/01/07 11:01:42;;;;;;;3.45;0.98;;;;;;;5.99;85.60;100835.84;5008404;28;20163;-72
2022/01/07 11:04:12;;;;;;;2.47;1.42;;;;;;;5.98;86.10;100837.63;5020557;28;20047;-70
2022/01/07 11:06:40;;;;;;;2.08;1.30;;;;;;;6.09;85.96;100832.59;5015652;28;20054;-69
2022/01/07 11:09:09;;;;;;;1.35;0.88;;;;;;;6.11;85.69;100835.97;5016821;28;20045;-71
2022/01/07 11:11:41;;;;;;;2.00;1.25;;;;;;;6.09;85.92;100823.97;5010446;28;20121;-73
2022/01/07 11:14:08;;;;;;;3.30;1.48;;;;;;;6.14;85.83;100817.53;5018084;28;20042;-71
2022/01/07 11:16:39;;;;;;;1.40;0.95;;;;;;;6.11;86.49;100809.06;5007466;28;20045;-72
2022/01/07 11:19:07;;;;;;;1.60;1.02;;;;;;;6.19;85.82;100793.78;5019336;28;20552;-72
2022/01/07 11:21:35;;;;;;;1.30;1.02;;;;;;;6.29;85.07;100793.13;5011059;28;20075;-71
2022/01/07 11:24:36;;;;;;;14.18;1.27;;;;;;;6.38;85.44;100798.63;5020876;28;20054;-71
2022/01/07 11:27:04;;;;;;;1.50;0.70;;;;;;;6.21;85.39;100803.19;5014930;28;20045;-71
2022/01/07 11:29:30;;;;;;;0.63;0.55;;;;;;;6.01;86.77;100802.72;5019881;28;20052;-72
2022/01/07 11:32:30;;;;;;;2.55;1.40;;;;;;;6.05;86.35;100809.41;5015377;28;20124;-72
2022/01/07 11:34:58;;;;;;;1.98;1.00;;;;;;;5.98;86.51;100795.06;5019887;28;20056;-71
2022/01/07 11:37:36;;;;;;;2.58;1.55;;;;;;;5.87;86.90;100802.66;5000029;28;20562;-72
2022/01/07 11:40:04;;;;;;;4.93;1.05;;;;;;;5.80;87.74;100793.53;5009702;28;20652;-71
2022/01/07 11:42:41;;;;;;;4.07;1.95;;;;;;;5.75;87.09;100798.16;4999125;28;20099;-72
2022/01/07 11:45:29;;;;;;;0.98;0.80;;;;;;;5.81;87.35;100803.03;5019199;28;20049;-71